sensor_id;sensor_type;location;lat;lon;timestamp;P1;durP1;ratioP1;P2;durP2;ratioP2
15256;SDS011;7731;50.720;6.912;2023-07-29T00:02:08;1.48;;;1.38;;
15256;SDS011;7731;50.720;6.912;2023-07-29T00:04:38;2.55;;;1.33;;
15256;SDS011;7731;50.720;6.912;2023-07-29T00:07:08;1.48;;;1.38;;
15256;SDS011;7731;50.720;6.912;2023-07-29T00:09:41;2.28;;;1.30;;
15256;SDS011;7731;50.720;6.912;2023-07-29T00:15:03;2.65;;;1.33;;
15256;SDS011;7731;50.720;6.912;2023-07-29T00:17:37;2.72;;;1.27;;
15256;SDS011;7731;50.720;6.912;2023-07-29T00:20:10;2.80;;;1.30;;
15256;SDS011;7731;50.720;6.912;2023-07-29T00:22:43;1.73;;;1.30;;
15256;SDS011;7731;50.720;6.912;2023-07-29T00:25:23;1.73;;;1.10;;
15256;SDS011;7731;50.720;6.912;2023-07-29T00:27:56;2.28;;;1.48;;
15256;SDS011;7731;50.720;6.912;2023-07-29T00:30:28;1.98;;;1.40;;
15256;SDS011;7731;50.720;6.912;2023-07-29T00:33:01;1.20;;;1.10;;
15256;SDS011;7731;50.720;6.912;2023-07-29T00:35:34;1.38;;;1.27;;
15256;SDS011;7731;50.720;6.912;2023-07-29T00:38:04;2.17;;;1.30;;
15256;SDS011;7731;50.720;6.912;2023-07-29T00:40:37;1.88;;;1.27;;
15256;SDS011;7731;50.720;6.912;2023-07-29T00:43:12;1.50;;;1.30;;
15256;SDS011;7731;50.720;6.912;2023-07-29T00:45:43;3.55;;;1.48;;
15256;SDS011;7731;50.720;6.912;2023-07-29T00:48:17;1.63;;;1.42;;
15256;SDS011;7731;50.720;6.912;2023-07-29T00:50:48;1.77;;;1.35;;
15256;SDS011;7731;50.720;6.912;2023-07-29T00:53:19;2.08;;;1.50;;
15256;SDS011;7731;50.720;6.912;2023-07-29T00:55:49;1.40;;;1.30;;
15256;SDS011;7731;50.720;6.912;2023-07-29T00:58:25;2.20;;;1.40;;
15256;SDS011;7731;50.720;6.912;2023-07-29T01:01:03;3.00;;;1.70;;
15256;SDS011;7731;50.720;6.912;2023-07-29T01:03:34;2.78;;;1.33;;
15256;SDS011;7731;50.720;6.912;2023-07-29T01:06:08;2.72;;;1.40;;
15256;SDS011;7731;50.720;6.912;2023-07-29T01:08:55;2.70;;;1.27;;
15256;SDS011;7731;50.720;6.912;2023-07-29T01:11:40;2.65;;;1.50;;
15256;SDS011;7731;50.720;6.912;2023-07-29T01:14:26;1.30;;;1.20;;
15256;SDS011;7731;50.720;6.912;2023-07-29T01:17:13;3.05;;;1.40;;
15256;SDS011;7731;50.720;6.912;2023-07-29T01:19:58;2.78;;;1.58;;
15256;SDS011;7731;50.720;6.912;2023-07-29T01:22:32;2.13;;;1.30;;
15256;SDS011;7731;50.720;6.912;2023-07-29T01:25:11;1.55;;;1.40;;
15256;SDS011;7731;50.720;6.912;2023-07-29T01:27:45;1.40;;;1.30;;
15256;SDS011;7731;50.720;6.912;2023-07-29T01:30:19;1.50;;;1.40;;
15256;SDS011;7731;50.720;6.912;2023-07-29T01:33:09;2.40;;;1.35;;
15256;SDS011;7731;50.720;6.912;2023-07-29T01:35:47;2.30;;;1.25;;
15256;SDS011;7731;50.720;6.912;2023-07-29T01:38:23;1.88;;;1.40;;
15256;SDS011;7731;50.720;6.912;2023-07-29T01:41:11;1.52;;;1.38;;
15256;SDS011;7731;50.720;6.912;2023-07-29T01:43:47;2.45;;;1.40;;
15256;SDS011;7731;50.720;6.912;2023-07-29T01:46:19;1.48;;;1.20;;
15256;SDS011;7731;50.720;6.912;2023-07-29T01:48:50;2.85;;;1.05;;
15256;SDS011;7731;50.720;6.912;2023-07-29T01:51:23;3.33;;;1.42;;
15256;SDS011;7731;50.720;6.912;2023-07-29T01:53:57;2.42;;;1.50;;
15256;SDS011;7731;50.720;6.912;2023-07-29T01:56:33;1.13;;;1.10;;
15256;SDS011;7731;50.720;6.912;2023-07-29T01:59:06;4.25;;;1.50;;
15256;SDS011;7731;50.720;6.912;2023-07-29T02:01:40;5.97;;;1.63;;
15256;SDS011;7731;50.720;6.912;2023-07-29T02:04:10;1.50;;;1.17;;
15256;SDS011;7731;50.720;6.912;2023-07-29T02:06:41;1.30;;;1.20;;
15256;SDS011;7731;50.720;6.912;2023-07-29T02:09:11;3.33;;;1.10;;
15256;SDS011;7731;50.720;6.912;2023-07-29T02:11:44;1.25;;;1.15;;
15256;SDS011;7731;50.720;6.912;2023-07-29T02:14:14;2.40;;;1.35;;
15256;SDS011;7731;50.720;6.912;2023-07-29T02:16:45;1.60;;;1.10;;
15256;SDS011;7731;50.720;6.912;2023-07-29T02:19:16;1.10;;;1.00;;
15256;SDS011;7731;50.720;6.912;2023-07-29T02:21:49;1.88;;;1.08;;
15256;SDS011;7731;50.720;6.912;2023-07-29T02:24:31;1.42;;;1.20;;
15256;SDS011;7731;50.720;6.912;2023-07-29T02:27:04;1.83;;;1.30;;
15256;SDS011;7731;50.720;6.912;2023-07-29T02:29:36;1.40;;;1.30;;
15256;SDS011;7731;50.720;6.912;2023-07-29T02:32:06;1.30;;;1.17;;
15256;SDS011;7731;50.720;6.912;2023-07-29T02:34:37;2.00;;;1.25;;
15256;SDS011;7731;50.720;6.912;2023-07-29T02:37:15;1.95;;;1.60;;
15256;SDS011;7731;50.720;6.912;2023-07-29T02:39:46;6.50;;;1.88;;
15256;SDS011;7731;50.720;6.912;2023-07-29T02:42:22;3.53;;;2.10;;
15256;SDS011;7731;50.720;6.912;2023-07-29T02:44:52;4.55;;;1.70;;
15256;SDS011;7731;50.720;6.912;2023-07-29T02:47:23;4.93;;;1.55;;
15256;SDS011;7731;50.720;6.912;2023-07-29T02:49:53;2.25;;;0.90;;
15256;SDS011;7731;50.720;6.912;2023-07-29T02:52:23;3.15;;;1.05;;
15256;SDS011;7731;50.720;6.912;2023-07-29T02:54:54;1.63;;;1.00;;
15256;SDS011;7731;50.720;6.912;2023-07-29T02:57:35;2.60;;;1.33;;
15256;SDS011;7731;50.720;6.912;2023-07-29T03:00:06;1.75;;;1.25;;
15256;SDS011;7731;50.720;6.912;2023-07-29T03:02:46;1.02;;;0.93;;
15256;SDS011;7731;50.720;6.912;2023-07-29T03:05:16;2.70;;;1.20;;
15256;SDS011;7731;50.720;6.912;2023-07-29T03:07:54;1.52;;;1.00;;
15256;SDS011;7731;50.720;6.912;2023-07-29T03:10:27;1.30;;;1.17;;
15256;SDS011;7731;50.720;6.912;2023-07-29T03:13:00;2.88;;;1.20;;
15256;SDS011;7731;50.720;6.912;2023-07-29T03:15:31;1.70;;;1.02;;
15256;SDS011;7731;50.720;6.912;2023-07-29T03:18:04;1.20;;;1.05;;
15256;SDS011;7731;50.720;6.912;2023-07-29T03:20:34;3.63;;;1.13;;
15256;SDS011;7731;50.720;6.912;2023-07-29T03:23:05;1.33;;;1.10;;
15256;SDS011;7731;50.720;6.912;2023-07-29T03:25:37;1.20;;;1.10;;
15256;SDS011;7731;50.720;6.912;2023-07-29T03:28:10;4.22;;;1.45;;
15256;SDS011;7731;50.720;6.912;2023-07-29T03:30:53;2.92;;;1.10;;
15256;SDS011;7731;50.720;6.912;2023-07-29T03:33:26;2.00;;;1.40;;
15256;SDS011;7731;50.720;6.912;2023-07-29T03:35:57;1.75;;;0.93;;
15256;SDS011;7731;50.720;6.912;2023-07-29T03:38:29;1.88;;;1.13;;
15256;SDS011;7731;50.720;6.912;2023-07-29T03:41:07;1.38;;;1.10;;
15256;SDS011;7731;50.720;6.912;2023-07-29T03:43:40;1.88;;;1.17;;
15256;SDS011;7731;50.720;6.912;2023-07-29T03:46:10;2.40;;;1.08;;
15256;SDS011;7731;50.720;6.912;2023-07-29T03:48:44;2.20;;;1.08;;
15256;SDS011;7731;50.720;6.912;2023-07-29T03:51:14;1.17;;;0.98;;
15256;SDS011;7731;50.720;6.912;2023-07-29T03:53:48;1.85;;;1.10;;
15256;SDS011;7731;50.720;6.912;2023-07-29T03:56:18;2.28;;;1.08;;
15256;SDS011;7731;50.720;6.912;2023-07-29T03:58:51;1.67;;;1.20;;
15256;SDS011;7731;50.720;6.912;2023-07-29T04:01:24;2.17;;;1.30;;
15256;SDS011;7731;50.720;6.912;2023-07-29T04:03:55;3.15;;;1.40;;
15256;SDS011;7731;50.720;6.912;2023-07-29T04:06:25;2.95;;;1.27;;
15256;SDS011;7731;50.720;6.912;2023-07-29T04:08:56;1.65;;;1.20;;
15256;SDS011;7731;50.720;6.912;2023-07-29T04:11:26;2.72;;;1.40;;
15256;SDS011;7731;50.720;6.912;2023-07-29T04:13:59;2.83;;;1.80;;
15256;SDS011;7731;50.720;6.912;2023-07-29T04:16:29;1.27;;;1.17;;
15256;SDS011;7731;50.720;6.912;2023-07-29T04:19:00;2.53;;;1.30;;
15256;SDS011;7731;50.720;6.912;2023-07-29T04:21:38;1.75;;;1.10;;
15256;SDS011;7731;50.720;6.912;2023-07-29T04:24:12;3.22;;;1.20;;
15256;SDS011;7731;50.720;6.912;2023-07-29T04:26:42;2.28;;;1.40;;
15256;SDS011;7731;50.720;6.912;2023-07-29T04:29:18;1.25;;;1.10;;
15256;SDS011;7731;50.720;6.912;2023-07-29T04:31:49;3.90;;;1.50;;
15256;SDS011;7731;50.720;6.912;2023-07-29T04:34:19;3.17;;;1.33;;
15256;SDS011;7731;50.720;6.912;2023-07-29T04:36:55;1.60;;;1.50;;
15256;SDS011;7731;50.720;6.912;2023-07-29T04:39:30;1.75;;;1.30;;
15256;SDS011;7731;50.720;6.912;2023-07-29T04:42:00;5.30;;;1.73;;
15256;SDS011;7731;50.720;6.912;2023-07-29T04:44:33;3.38;;;1.50;;
15256;SDS011;7731;50.720;6.912;2023-07-29T04:47:08;3.13;;;1.80;;
15256;SDS011;7731;50.720;6.912;2023-07-29T04:49:39;3.78;;;1.60;;
15256;SDS011;7731;50.720;6.912;2023-07-29T04:52:10;1.98;;;1.75;;
15256;SDS011;7731;50.720;6.912;2023-07-29T04:54:44;2.38;;;1.92;;
15256;SDS011;7731;50.720;6.912;2023-07-29T04:57:14;3.53;;;1.95;;
15256;SDS011;7731;50.720;6.912;2023-07-29T04:59:48;2.65;;;1.92;;
15256;SDS011;7731;50.720;6.912;2023-07-29T05:05:12;2.85;;;2.03;;
15256;SDS011;7731;50.720;6.912;2023-07-29T05:07:45;2.08;;;1.73;;
15256;SDS011;7731;50.720;6.912;2023-07-29T05:10:18;2.60;;;2.00;;
15256;SDS011;7731;50.720;6.912;2023-07-29T05:12:48;2.10;;;1.80;;
15256;SDS011;7731;50.720;6.912;2023-07-29T05:15:27;2.83;;;2.00;;
15256;SDS011;7731;50.720;6.912;2023-07-29T05:18:04;3.50;;;2.00;;
15256;SDS011;7731;50.720;6.912;2023-07-29T05:20:37;4.65;;;1.75;;
15256;SDS011;7731;50.720;6.912;2023-07-29T05:23:07;2.38;;;1.77;;
15256;SDS011;7731;50.720;6.912;2023-07-29T05:25:48;2.45;;;1.80;;
15256;SDS011;7731;50.720;6.912;2023-07-29T05:28:18;2.97;;;1.73;;
15256;SDS011;7731;50.720;6.912;2023-07-29T05:30:51;2.95;;;2.00;;
15256;SDS011;7731;50.720;6.912;2023-07-29T05:33:22;2.17;;;1.70;;
15256;SDS011;7731;50.720;6.912;2023-07-29T05:35:52;2.35;;;1.90;;
15256;SDS011;7731;50.720;6.912;2023-07-29T05:38:22;2.38;;;1.83;;
15256;SDS011;7731;50.720;6.912;2023-07-29T05:40:53;2.67;;;1.77;;
15256;SDS011;7731;50.720;6.912;2023-07-29T05:43:26;1.80;;;1.70;;
15256;SDS011;7731;50.720;6.912;2023-07-29T05:45:59;1.95;;;1.73;;
15256;SDS011;7731;50.720;6.912;2023-07-29T05:48:29;2.60;;;1.80;;
15256;SDS011;7731;50.720;6.912;2023-07-29T05:51:00;3.67;;;1.90;;
15256;SDS011;7731;50.720;6.912;2023-07-29T05:53:28;2.50;;;1.70;;
15256;SDS011;7731;50.720;6.912;2023-07-29T05:55:58;4.53;;;2.03;;
15256;SDS011;7731;50.720;6.912;2023-07-29T05:58:29;2.22;;;1.80;;
15256;SDS011;7731;50.720;6.912;2023-07-29T06:01:02;2.90;;;1.92;;
15256;SDS011;7731;50.720;6.912;2023-07-29T06:03:39;2.72;;;2.00;;
15256;SDS011;7731;50.720;6.912;2023-07-29T06:06:09;2.05;;;1.85;;
15256;SDS011;7731;50.720;6.912;2023-07-29T06:08:43;5.53;;;2.00;;
15256;SDS011;7731;50.720;6.912;2023-07-29T06:11:13;3.47;;;2.15;;
15256;SDS011;7731;50.720;6.912;2023-07-29T06:13:43;2.97;;;2.22;;
15256;SDS011;7731;50.720;6.912;2023-07-29T06:16:16;4.15;;;2.72;;
15256;SDS011;7731;50.720;6.912;2023-07-29T06:18:46;3.13;;;2.40;;
15256;SDS011;7731;50.720;6.912;2023-07-29T06:21:19;3.25;;;2.58;;
15256;SDS011;7731;50.720;6.912;2023-07-29T06:23:49;3.67;;;2.50;;
15256;SDS011;7731;50.720;6.912;2023-07-29T06:26:20;3.50;;;2.47;;
15256;SDS011;7731;50.720;6.912;2023-07-29T06:28:50;4.93;;;2.50;;
15256;SDS011;7731;50.720;6.912;2023-07-29T06:31:23;3.65;;;2.05;;
15256;SDS011;7731;50.720;6.912;2023-07-29T06:34:03;3.00;;;2.03;;
15256;SDS011;7731;50.720;6.912;2023-07-29T06:36:33;2.10;;;1.90;;
15256;SDS011;7731;50.720;6.912;2023-07-29T06:39:04;4.47;;;2.30;;
15256;SDS011;7731;50.720;6.912;2023-07-29T06:41:34;3.22;;;2.20;;
15256;SDS011;7731;50.720;6.912;2023-07-29T06:44:08;3.83;;;2.08;;
15256;SDS011;7731;50.720;6.912;2023-07-29T06:46:45;5.57;;;2.20;;
15256;SDS011;7731;50.720;6.912;2023-07-29T06:49:16;2.58;;;1.85;;
15256;SDS011;7731;50.720;6.912;2023-07-29T06:51:46;2.58;;;1.88;;
15256;SDS011;7731;50.720;6.912;2023-07-29T06:54:23;2.80;;;2.00;;
15256;SDS011;7731;50.720;6.912;2023-07-29T06:56:57;3.75;;;1.83;;
15256;SDS011;7731;50.720;6.912;2023-07-29T06:59:33;2.72;;;2.00;;
15256;SDS011;7731;50.720;6.912;2023-07-29T07:02:06;3.38;;;2.00;;
15256;SDS011;7731;50.720;6.912;2023-07-29T07:04:36;3.85;;;2.22;;
15256;SDS011;7731;50.720;6.912;2023-07-29T07:07:07;3.25;;;2.30;;
15256;SDS011;7731;50.720;6.912;2023-07-29T07:09:39;4.07;;;2.50;;
15256;SDS011;7731;50.720;6.912;2023-07-29T07:12:11;4.78;;;2.75;;
15256;SDS011;7731;50.720;6.912;2023-07-29T07:14:47;4.90;;;2.88;;
15256;SDS011;7731;50.720;6.912;2023-07-29T07:17:23;2.17;;;2.05;;
15256;SDS011;7731;50.720;6.912;2023-07-29T07:19:53;3.30;;;2.65;;
15256;SDS011;7731;50.720;6.912;2023-07-29T07:22:23;2.70;;;2.50;;
15256;SDS011;7731;50.720;6.912;2023-07-29T07:24:56;2.80;;;2.60;;
15256;SDS011;7731;50.720;6.912;2023-07-29T07:27:27;2.30;;;2.10;;
15256;SDS011;7731;50.720;6.912;2023-07-29T07:29:57;2.20;;;2.00;;
15256;SDS011;7731;50.720;6.912;2023-07-29T07:32:30;2.80;;;2.15;;
15256;SDS011;7731;50.720;6.912;2023-07-29T07:35:00;2.40;;;2.20;;
15256;SDS011;7731;50.720;6.912;2023-07-29T07:37:41;1.80;;;1.70;;
15256;SDS011;7731;50.720;6.912;2023-07-29T07:40:14;2.35;;;2.15;;
15256;SDS011;7731;50.720;6.912;2023-07-29T07:42:51;2.88;;;2.05;;
15256;SDS011;7731;50.720;6.912;2023-07-29T07:45:21;2.00;;;1.70;;
15256;SDS011;7731;50.720;6.912;2023-07-29T07:47:57;4.45;;;1.58;;
15256;SDS011;7731;50.720;6.912;2023-07-29T07:50:29;1.85;;;1.50;;
15256;SDS011;7731;50.720;6.912;2023-07-29T07:52:59;1.58;;;1.48;;
15256;SDS011;7731;50.720;6.912;2023-07-29T07:55:29;1.92;;;1.73;;
15256;SDS011;7731;50.720;6.912;2023-07-29T07:58:00;2.42;;;1.60;;
15256;SDS011;7731;50.720;6.912;2023-07-29T08:00:33;1.42;;;1.33;;
15256;SDS011;7731;50.720;6.912;2023-07-29T08:03:08;2.75;;;1.42;;
15256;SDS011;7731;50.720;6.912;2023-07-29T08:05:38;1.60;;;1.50;;
15256;SDS011;7731;50.720;6.912;2023-07-29T08:08:09;1.60;;;1.23;;
15256;SDS011;7731;50.720;6.912;2023-07-29T08:10:39;5.55;;;1.80;;
15256;SDS011;7731;50.720;6.912;2023-07-29T08:13:09;2.20;;;1.40;;
15256;SDS011;7731;50.720;6.912;2023-07-29T08:15:40;2.03;;;1.13;;
15256;SDS011;7731;50.720;6.912;2023-07-29T08:18:13;2.20;;;1.73;;
15256;SDS011;7731;50.720;6.912;2023-07-29T08:20:51;1.90;;;1.70;;
15256;SDS011;7731;50.720;6.912;2023-07-29T08:23:24;2.08;;;1.75;;
15256;SDS011;7731;50.720;6.912;2023-07-29T08:25:55;3.60;;;1.83;;
15256;SDS011;7731;50.720;6.912;2023-07-29T08:28:32;1.92;;;1.65;;
15256;SDS011;7731;50.720;6.912;2023-07-29T08:31:05;3.47;;;1.73;;
15256;SDS011;7731;50.720;6.912;2023-07-29T08:33:41;2.10;;;1.90;;
15256;SDS011;7731;50.720;6.912;2023-07-29T08:36:11;3.03;;;1.50;;
15256;SDS011;7731;50.720;6.912;2023-07-29T08:38:42;2.35;;;1.65;;
15256;SDS011;7731;50.720;6.912;2023-07-29T08:41:16;1.70;;;1.60;;
15256;SDS011;7731;50.720;6.912;2023-07-29T08:44:02;1.75;;;1.55;;
15256;SDS011;7731;50.720;6.912;2023-07-29T08:46:41;2.15;;;1.40;;
15256;SDS011;7731;50.720;6.912;2023-07-29T08:49:17;1.58;;;1.48;;
15256;SDS011;7731;50.720;6.912;2023-07-29T08:51:53;1.67;;;1.50;;
15256;SDS011;7731;50.720;6.912;2023-07-29T08:54:27;3.03;;;1.90;;
15256;SDS011;7731;50.720;6.912;2023-07-29T08:56:58;1.58;;;1.48;;
15256;SDS011;7731;50.720;6.912;2023-07-29T08:59:28;1.52;;;1.42;;
15256;SDS011;7731;50.720;6.912;2023-07-29T09:01:59;1.60;;;1.48;;
15256;SDS011;7731;50.720;6.912;2023-07-29T09:04:35;1.65;;;1.50;;
15256;SDS011;7731;50.720;6.912;2023-07-29T09:07:05;3.15;;;1.70;;
15256;SDS011;7731;50.720;6.912;2023-07-29T09:09:39;3.38;;;1.83;;
15256;SDS011;7731;50.720;6.912;2023-07-29T09:12:10;2.10;;;1.67;;
15256;SDS011;7731;50.720;6.912;2023-07-29T09:14:40;4.40;;;1.55;;
15256;SDS011;7731;50.720;6.912;2023-07-29T09:17:10;2.63;;;1.75;;
15256;SDS011;7731;50.720;6.912;2023-07-29T09:19:44;1.48;;;1.38;;
15256;SDS011;7731;50.720;6.912;2023-07-29T09:22:17;2.30;;;1.73;;
15256;SDS011;7731;50.720;6.912;2023-07-29T09:27:52;1.92;;;1.73;;
15256;SDS011;7731;50.720;6.912;2023-07-29T09:30:27;1.45;;;1.33;;
15256;SDS011;7731;50.720;6.912;2023-07-29T09:32:58;2.38;;;1.50;;
15256;SDS011;7731;50.720;6.912;2023-07-29T09:35:32;1.48;;;1.38;;
15256;SDS011;7731;50.720;6.912;2023-07-29T09:38:06;2.60;;;1.50;;
15256;SDS011;7731;50.720;6.912;2023-07-29T09:40:40;4.07;;;1.60;;
15256;SDS011;7731;50.720;6.912;2023-07-29T09:43:11;1.30;;;1.20;;
15256;SDS011;7731;50.720;6.912;2023-07-29T09:45:49;1.83;;;1.45;;
15256;SDS011;7731;50.720;6.912;2023-07-29T09:48:22;2.92;;;1.45;;
15256;SDS011;7731;50.720;6.912;2023-07-29T09:50:57;3.42;;;1.60;;
15256;SDS011;7731;50.720;6.912;2023-07-29T09:53:28;1.70;;;1.60;;
15256;SDS011;7731;50.720;6.912;2023-07-29T09:55:59;2.22;;;1.65;;
15256;SDS011;7731;50.720;6.912;2023-07-29T09:58:37;2.53;;;1.63;;
15256;SDS011;7731;50.720;6.912;2023-07-29T10:01:08;1.65;;;1.52;;
15256;SDS011;7731;50.720;6.912;2023-07-29T10:03:39;2.03;;;1.90;;
15256;SDS011;7731;50.720;6.912;2023-07-29T10:06:14;2.80;;;1.77;;
15256;SDS011;7731;50.720;6.912;2023-07-29T10:08:45;2.15;;;1.77;;
15256;SDS011;7731;50.720;6.912;2023-07-29T10:11:18;3.25;;;1.95;;
15256;SDS011;7731;50.720;6.912;2023-07-29T10:13:51;2.30;;;2.10;;
15256;SDS011;7731;50.720;6.912;2023-07-29T10:16:34;2.33;;;2.13;;
15256;SDS011;7731;50.720;6.912;2023-07-29T10:19:07;2.78;;;1.90;;
15256;SDS011;7731;50.720;6.912;2023-07-29T10:21:41;2.72;;;1.90;;
15256;SDS011;7731;50.720;6.912;2023-07-29T10:24:18;2.80;;;2.45;;
15256;SDS011;7731;50.720;6.912;2023-07-29T10:26:57;3.88;;;2.78;;
15256;SDS011;7731;50.720;6.912;2023-07-29T10:29:34;4.00;;;2.22;;
15256;SDS011;7731;50.720;6.912;2023-07-29T10:32:18;2.42;;;2.22;;
15256;SDS011;7731;50.720;6.912;2023-07-29T10:34:55;2.22;;;2.00;;
15256;SDS011;7731;50.720;6.912;2023-07-29T10:37:29;2.65;;;2.28;;
15256;SDS011;7731;50.720;6.912;2023-07-29T10:39:59;2.65;;;2.08;;
15256;SDS011;7731;50.720;6.912;2023-07-29T10:42:32;2.92;;;2.15;;
15256;SDS011;7731;50.720;6.912;2023-07-29T10:45:16;2.28;;;1.95;;
15256;SDS011;7731;50.720;6.912;2023-07-29T10:47:54;2.72;;;2.38;;
15256;SDS011;7731;50.720;6.912;2023-07-29T10:50:24;2.42;;;2.22;;
15256;SDS011;7731;50.720;6.912;2023-07-29T10:52:59;3.75;;;2.45;;
15256;SDS011;7731;50.720;6.912;2023-07-29T10:55:31;2.95;;;2.35;;
15256;SDS011;7731;50.720;6.912;2023-07-29T10:58:05;2.58;;;2.38;;
15256;SDS011;7731;50.720;6.912;2023-07-29T11:00:43;2.30;;;1.92;;
15256;SDS011;7731;50.720;6.912;2023-07-29T11:03:15;3.25;;;2.20;;
15256;SDS011;7731;50.720;6.912;2023-07-29T11:05:49;2.72;;;2.15;;
15256;SDS011;7731;50.720;6.912;2023-07-29T11:08:29;2.85;;;2.15;;
15256;SDS011;7731;50.720;6.912;2023-07-29T11:11:04;2.92;;;2.10;;
15256;SDS011;7731;50.720;6.912;2023-07-29T11:13:37;2.70;;;2.00;;
15256;SDS011;7731;50.720;6.912;2023-07-29T11:16:09;2.15;;;1.92;;
15256;SDS011;7731;50.720;6.912;2023-07-29T11:18:48;2.13;;;1.92;;
15256;SDS011;7731;50.720;6.912;2023-07-29T11:21:18;2.17;;;1.98;;
15256;SDS011;7731;50.720;6.912;2023-07-29T11:23:54;1.90;;;1.70;;
15256;SDS011;7731;50.720;6.912;2023-07-29T11:26:24;2.13;;;1.92;;
15256;SDS011;7731;50.720;6.912;2023-07-29T11:28:56;2.75;;;1.98;;
15256;SDS011;7731;50.720;6.912;2023-07-29T11:31:38;1.98;;;1.80;;
15256;SDS011;7731;50.720;6.912;2023-07-29T11:34:12;3.25;;;2.00;;
15256;SDS011;7731;50.720;6.912;2023-07-29T11:36:46;1.83;;;1.63;;
15256;SDS011;7731;50.720;6.912;2023-07-29T11:39:22;2.05;;;1.70;;
15256;SDS011;7731;50.720;6.912;2023-07-29T11:41:55;3.65;;;2.15;;
15256;SDS011;7731;50.720;6.912;2023-07-29T11:44:28;3.05;;;2.13;;
15256;SDS011;7731;50.720;6.912;2023-07-29T11:46:58;2.00;;;1.80;;
15256;SDS011;7731;50.720;6.912;2023-07-29T11:49:35;2.70;;;1.98;;
15256;SDS011;7731;50.720;6.912;2023-07-29T11:52:10;2.35;;;2.15;;
15256;SDS011;7731;50.720;6.912;2023-07-29T11:54:48;2.10;;;1.60;;
15256;SDS011;7731;50.720;6.912;2023-07-29T11:57:19;2.05;;;1.60;;
15256;SDS011;7731;50.720;6.912;2023-07-29T11:59:50;1.70;;;1.60;;
15256;SDS011;7731;50.720;6.912;2023-07-29T12:02:22;1.95;;;1.70;;
15256;SDS011;7731;50.720;6.912;2023-07-29T12:04:54;2.10;;;1.90;;
15256;SDS011;7731;50.720;6.912;2023-07-29T12:07:27;2.38;;;2.17;;
15256;SDS011;7731;50.720;6.912;2023-07-29T12:10:00;3.85;;;2.08;;
15256;SDS011;7731;50.720;6.912;2023-07-29T12:12:31;2.28;;;2.03;;
15256;SDS011;7731;50.720;6.912;2023-07-29T12:15:01;1.95;;;1.80;;
15256;SDS011;7731;50.720;6.912;2023-07-29T12:17:39;1.75;;;1.65;;
15256;SDS011;7731;50.720;6.912;2023-07-29T12:20:13;2.30;;;2.00;;
15256;SDS011;7731;50.720;6.912;2023-07-29T12:22:43;3.00;;;1.95;;
15256;SDS011;7731;50.720;6.912;2023-07-29T12:25:16;4.60;;;2.00;;
15256;SDS011;7731;50.720;6.912;2023-07-29T12:27:47;1.75;;;1.65;;
15256;SDS011;7731;50.720;6.912;2023-07-29T12:30:20;2.22;;;1.73;;
15256;SDS011;7731;50.720;6.912;2023-07-29T12:32:51;2.83;;;1.70;;
15256;SDS011;7731;50.720;6.912;2023-07-29T12:35:22;1.75;;;1.60;;
15256;SDS011;7731;50.720;6.912;2023-07-29T12:37:58;2.33;;;1.45;;
15256;SDS011;7731;50.720;6.912;2023-07-29T12:40:31;1.55;;;1.30;;
15256;SDS011;7731;50.720;6.912;2023-07-29T12:43:02;2.28;;;1.17;;
15256;SDS011;7731;50.720;6.912;2023-07-29T12:45:35;1.70;;;1.40;;
15256;SDS011;7731;50.720;6.912;2023-07-29T12:48:08;1.40;;;1.30;;
15256;SDS011;7731;50.720;6.912;2023-07-29T12:50:39;1.10;;;1.00;;
15256;SDS011;7731;50.720;6.912;2023-07-29T12:53:15;1.05;;;1.00;;
15256;SDS011;7731;50.720;6.912;2023-07-29T12:55:48;1.65;;;0.98;;
15256;SDS011;7731;50.720;6.912;2023-07-29T12:58:18;2.22;;;1.10;;
15256;SDS011;7731;50.720;6.912;2023-07-29T13:00:58;1.10;;;1.00;;
15256;SDS011;7731;50.720;6.912;2023-07-29T13:03:29;1.65;;;1.20;;
15256;SDS011;7731;50.720;6.912;2023-07-29T13:06:00;1.40;;;1.30;;
15256;SDS011;7731;50.720;6.912;2023-07-29T13:08:30;1.48;;;1.17;;
15256;SDS011;7731;50.720;6.912;2023-07-29T13:11:05;1.40;;;1.30;;
15256;SDS011;7731;50.720;6.912;2023-07-29T13:13:36;1.88;;;1.17;;
15256;SDS011;7731;50.720;6.912;2023-07-29T13:16:06;2.17;;;1.20;;
15256;SDS011;7731;50.720;6.912;2023-07-29T13:18:39;1.50;;;1.10;;
15256;SDS011;7731;50.720;6.912;2023-07-29T13:21:10;1.40;;;1.30;;
15256;SDS011;7731;50.720;6.912;2023-07-29T13:23:49;1.35;;;1.20;;
15256;SDS011;7731;50.720;6.912;2023-07-29T13:26:30;1.95;;;1.20;;
15256;SDS011;7731;50.720;6.912;2023-07-29T13:29:05;1.40;;;1.30;;
15256;SDS011;7731;50.720;6.912;2023-07-29T13:31:35;1.35;;;1.25;;
15256;SDS011;7731;50.720;6.912;2023-07-29T13:34:05;1.30;;;1.20;;
15256;SDS011;7731;50.720;6.912;2023-07-29T13:36:48;1.20;;;1.10;;
15256;SDS011;7731;50.720;6.912;2023-07-29T13:39:18;1.30;;;1.20;;
15256;SDS011;7731;50.720;6.912;2023-07-29T13:42:00;1.50;;;1.20;;
15256;SDS011;7731;50.720;6.912;2023-07-29T13:44:30;2.30;;;1.48;;
15256;SDS011;7731;50.720;6.912;2023-07-29T13:47:04;2.58;;;1.40;;
15256;SDS011;7731;50.720;6.912;2023-07-29T13:49:38;1.30;;;1.15;;
15256;SDS011;7731;50.720;6.912;2023-07-29T13:52:08;1.52;;;1.35;;
15256;SDS011;7731;50.720;6.912;2023-07-29T13:54:38;2.63;;;1.80;;
15256;SDS011;7731;50.720;6.912;2023-07-29T13:57:14;3.42;;;2.47;;
15256;SDS011;7731;50.720;6.912;2023-07-29T13:59:44;2.53;;;1.80;;
15256;SDS011;7731;50.720;6.912;2023-07-29T14:02:14;1.55;;;1.45;;
15256;SDS011;7731;50.720;6.912;2023-07-29T14:04:45;1.50;;;1.40;;
15256;SDS011;7731;50.720;6.912;2023-07-29T14:07:15;3.88;;;1.50;;
15256;SDS011;7731;50.720;6.912;2023-07-29T14:09:45;1.55;;;1.45;;
15256;SDS011;7731;50.720;6.912;2023-07-29T14:12:21;1.60;;;1.50;;
15256;SDS011;7731;50.720;6.912;2023-07-29T14:14:51;2.13;;;1.60;;
15256;SDS011;7731;50.720;6.912;2023-07-29T14:17:21;1.60;;;1.50;;
15256;SDS011;7731;50.720;6.912;2023-07-29T14:19:52;4.47;;;1.92;;
15256;SDS011;7731;50.720;6.912;2023-07-29T14:22:22;1.92;;;1.75;;
15256;SDS011;7731;50.720;6.912;2023-07-29T14:24:52;1.83;;;1.60;;
15256;SDS011;7731;50.720;6.912;2023-07-29T14:27:28;1.85;;;1.70;;
15256;SDS011;7731;50.720;6.912;2023-07-29T14:29:59;2.13;;;1.92;;
15256;SDS011;7731;50.720;6.912;2023-07-29T14:32:32;1.83;;;1.73;;
15256;SDS011;7731;50.720;6.912;2023-07-29T14:35:13;2.13;;;1.92;;
15256;SDS011;7731;50.720;6.912;2023-07-29T14:37:50;2.15;;;2.00;;
15256;SDS011;7731;50.720;6.912;2023-07-29T14:40:23;2.53;;;2.33;;
15256;SDS011;7731;50.720;6.912;2023-07-29T14:42:59;2.60;;;2.00;;
15256;SDS011;7731;50.720;6.912;2023-07-29T14:45:32;2.30;;;2.10;;
15256;SDS011;7731;50.720;6.912;2023-07-29T14:48:03;2.53;;;2.20;;
15256;SDS011;7731;50.720;6.912;2023-07-29T14:50:34;2.10;;;1.70;;
15256;SDS011;7731;50.720;6.912;2023-07-29T14:53:05;2.30;;;2.10;;
15256;SDS011;7731;50.720;6.912;2023-07-29T14:55:36;2.97;;;2.15;;
15256;SDS011;7731;50.720;6.912;2023-07-29T14:58:09;2.60;;;2.40;;
15256;SDS011;7731;50.720;6.912;2023-07-29T15:00:39;2.83;;;2.42;;
15256;SDS011;7731;50.720;6.912;2023-07-29T15:03:10;2.53;;;2.33;;
15256;SDS011;7731;50.720;6.912;2023-07-29T15:05:42;5.07;;;2.45;;
15256;SDS011;7731;50.720;6.912;2023-07-29T15:08:13;4.05;;;2.60;;
15256;SDS011;7731;50.720;6.912;2023-07-29T15:10:52;2.30;;;2.15;;
15256;SDS011;7731;50.720;6.912;2023-07-29T15:13:25;3.10;;;2.45;;
15256;SDS011;7731;50.720;6.912;2023-07-29T15:16:04;3.40;;;2.60;;
15256;SDS011;7731;50.720;6.912;2023-07-29T15:18:34;5.82;;;2.72;;
15256;SDS011;7731;50.720;6.912;2023-07-29T15:21:08;2.75;;;2.55;;
15256;SDS011;7731;50.720;6.912;2023-07-29T15:23:39;2.60;;;2.40;;
15256;SDS011;7731;50.720;6.912;2023-07-29T15:26:13;3.95;;;2.30;;
15256;SDS011;7731;50.720;6.912;2023-07-29T15:28:48;2.60;;;2.40;;
15256;SDS011;7731;50.720;6.912;2023-07-29T15:31:18;3.30;;;2.85;;
15256;SDS011;7731;50.720;6.912;2023-07-29T15:33:49;3.92;;;3.40;;
15256;SDS011;7731;50.720;6.912;2023-07-29T15:36:19;3.67;;;2.92;;
15256;SDS011;7731;50.720;6.912;2023-07-29T15:38:56;4.13;;;2.90;;
15256;SDS011;7731;50.720;6.912;2023-07-29T15:41:30;3.10;;;2.80;;
15256;SDS011;7731;50.720;6.912;2023-07-29T15:44:06;3.88;;;3.33;;
15256;SDS011;7731;50.720;6.912;2023-07-29T15:46:37;3.50;;;3.20;;